Time;durP1;ratioP1;P1;durP2;ratioP2;P2;SDS_P1;SDS_P2;PMS_P1;PMS_P2;Temp;Humidity;BMP_temperature;BMP_pressure;BME280_temperature;BME280_humidity;BME280_pressure;Samples;Min_cycle;Max_cycle;Signal;HPM_P1;HPM_P2
2023/07/04 04:05:12;;;;;;;17.67;10.73;;;;;;;21.47;95.47;100436.97;5606581;31;80008;-60
2023/07/04 04:08:14;;;;;;;15.20;11.20;;;;;;;21.47;95.47;100436.97;5601649;31;33412;-60
2023/07/04 04:11:17;;;;;;;17.02;10.18;;;;;;;20.92;97.58;100452.25;5603156;31;33622;-60
2023/07/04 04:14:19;;;;;;;16.77;10.73;;;;;;;20.92;100.00;100457.69;5603605;31;33523;-60
2023/07/04 04:17:21;;;;;;;16.02;10.77;;;;;;;20.96;97.97;100464.06;5603232;31;33291;-60
2023/07/04 04:20:25;;;;;;;15.93;10.73;;;;;;;20.99;97.40;100471.53;5603485;31;34279;-60
2023/07/04 04:23:27;;;;;;;15.30;10.80;;;;;;;20.94;98.38;100460.87;5602125;31;33559;-60
2023/07/04 04:26:37;;;;;;;17.25;10.57;;;;;;;20.85;100.00;100460.22;5596671;31;33327;-60
2023/07/04 04:29:40;;;;;;;14.20;10.43;;;;;;;21.02;100.00;100454.47;5583453;31;33289;-60
2023/07/04 04:32:44;;;;;;;14.00;10.48;;;;;;;21.10;96.19;100458.19;5583384;32;34298;-60
2023/07/04 04:35:47;;;;;;;14.85;10.23;;;;;;;21.08;96.55;100461.25;5583476;31;33611;-61
2023/07/04 04:38:49;;;;;;;16.17;10.20;;;;;;;21.01;95.21;100454.84;5573348;32;34334;-62
2023/07/04 04:41:52;;;;;;;14.43;10.57;;;;;;;20.83;97.33;100443.47;5563557;32;33925;-61
2023/07/04 04:44:55;;;;;;;13.30;9.57;;;;;;;20.87;98.53;100438.91;5563859;32;34346;-62
2023/07/04 04:47:57;;;;;;;13.45;9.50;;;;;;;20.95;96.75;100451.56;5563911;32;34344;-62
2023/07/04 04:51:10;;;;;;;14.13;10.43;;;;;;;20.81;100.00;100443.00;5563883;32;34304;-61
2023/07/04 04:54:14;;;;;;;14.63;9.90;;;;;;;20.73;100.00;100444.75;5563678;32;33423;-61
2023/07/04 04:57:17;;;;;;;14.95;9.80;;;;;;;21.02;96.29;100453.69;5563777;32;33696;-61
2023/07/04 05:00:20;;;;;;;12.93;9.23;;;;;;;21.02;98.41;100464.59;5563856;32;33765;-61
2023/07/04 05:03:23;;;;;;;15.82;10.30;;;;;;;20.99;100.00;100468.81;5563364;32;33502;-62
2023/07/04 05:06:26;;;;;;;17.67;10.95;;;;;;;21.16;96.86;100469.62;5565100;32;33730;-60
2023/07/04 05:09:29;;;;;;;14.55;10.15;;;;;;;21.09;97.14;100476.50;5583207;31;33669;-61
2023/07/04 05:12:32;;;;;;;15.00;10.07;;;;;;;21.06;100.00;100484.56;5583235;31;33638;-62
2023/07/04 05:15:35;;;;;;;14.05;9.82;;;;;;;21.09;100.00;100494.75;5574259;31;34405;-61
2023/07/04 05:18:38;;;;;;;12.88;10.13;;;;;;;21.09;100.00;100492.84;5570054;32;34240;-60
2023/07/04 05:21:41;;;;;;;15.07;9.98;;;;;;;21.14;100.00;100485.53;5570048;32;34237;-61
2023/07/04 05:24:43;;;;;;;14.10;9.95;;;;;;;21.12;100.00;100481.25;5570041;32;33566;-60
2023/07/04 05:27:46;;;;;;;14.98;9.82;;;;;;;21.15;100.00;100478.94;5569857;32;33575;-61
2023/07/04 05:30:56;;;;;;;13.50;9.57;;;;;;;21.19;96.56;100485.28;5567918;32;33664;-60
2023/07/04 05:33:59;;;;;;;15.10;10.48;;;;;;;21.22;97.49;100487.31;5550421;32;34321;-61
2023/07/04 05:37:03;;;;;;;15.60;10.52;;;;;;;21.19;99.70;100486.09;5550600;32;33697;-61
2023/07/04 05:40:08;;;;;;;15.10;10.13;;;;;;;21.29;99.21;100501.13;5550546;32;33721;-61
2023/07/04 05:43:10;;;;;;;17.42;10.40;;;;;;;21.44;97.29;100505.84;5550169;32;34433;-61
2023/07/04 05:46:16;;;;;;;15.50;10.13;;;;;;;21.35;99.71;100503.28;5550501;32;33572;-58
2023/07/04 05:49:20;;;;;;;15.82;10.38;;;;;;;21.37;98.83;100508.41;5550144;32;34239;-58
2023/07/04 05:52:23;;;;;;;18.12;10.88;;;;;;;21.32;100.00;100503.16;5556043;32;33749;-58
2023/07/04 05:55:26;;;;;;;14.32;10.02;;;;;;;21.31;99.98;100501.56;5568707;32;34096;-58
2023/07/04 05:58:28;;;;;;;15.63;10.77;;;;;;;21.39;99.07;100506.13;5550283;32;33604;-58
2023/07/04 06:01:44;;;;;;;22.58;11.32;;;;;;;21.33;100.00;100505.53;5550109;32;33736;-58
2023/07/04 06:04:46;;;;;;;15.45;10.30;;;;;;;21.33;99.62;100510.22;5568881;32;33695;-58
2023/07/04 06:07:49;;;;;;;17.58;10.48;;;;;;;21.33;99.36;100511.00;5569461;32;33583;-58
2023/07/04 06:11:05;;;;;;;15.85;9.90;;;;;;;21.31;99.17;100512.47;5565330;32;34080;-58
2023/07/04 06:14:07;;;;;;;16.20;10.55;;;;;;;21.29;98.52;100512.03;5564059;32;33804;-58
2023/07/04 06:17:09;;;;;;;17.75;10.07;;;;;;;21.29;99.33;100512.84;5569246;32;33447;-58
2023/07/04 06:20:12;;;;;;;17.50;9.82;;;;;;;21.37;99.20;100523.97;5568501;32;33856;-58
2023/07/04 06:23:14;;;;;;;15.10;9.65;;;;;;;21.31;100.00;100524.19;5567543;32;33949;-58
2023/07/04 06:26:17;;;;;;;16.17;9.27;;;;;;;21.23;100.00;100536.03;5561280;32;33786;-58
2023/07/04 06:29:19;;;;;;;11.88;8.52;;;;;;;21.20;100.00;100533.22;5569035;32;33572;-57
2023/07/04 06:32:23;;;;;;;10.57;7.82;;;;;;;21.21;100.00;100530.12;5568356;32;33918;-58
2023/07/04 06:35:25;;;;;;;10.93;7.68;;;;;;;21.18;100.00;100540.94;5568533;32;33700;-59
2023/07/04 06:38:28;;;;;;;13.77;8.50;;;;;;;21.17;100.00;100550.28;5568268;32;34298;-58
2023/07/04 06:41:30;;;;;;;12.25;8.95;;;;;;;21.18;100.00;100549.91;5567564;32;34323;-57
2023/07/04 06:44:33;;;;;;;13.23;8.65;;;;;;;21.19;100.00;100548.78;5558827;32;33737;-58
2023/07/04 06:47:35;;;;;;;13.25;9.60;;;;;;;21.22;100.00;100550.00;5568775;32;33569;-58
2023/07/04 06:50:37;;;;;;;12.35;9.32;;;;;;;21.14;100.00;100545.50;5567978;32;33235;-59
2023/07/04 06:53:41;;;;;;;14.45;9.63;;;;;;;21.23;100.00;100551.63;5568479;32;33584;-58
2023/07/04 06:56:43;;;;;;;12.82;9.10;;;;;;;21.22;100.00;100550.78;5568403;32;33606;-57
2023/07/04 06:59:46;;;;;;;12.37;9.43;;;;;;;21.18;100.00;100540.94;5568554;32;34252;-58
2023/07/04 07:02:50;;;;;;;15.35;8.88;;;;;;;21.26;100.00;100542.75;5568348;32;33566;-58
2023/07/04 07:05:52;;;;;;;12.35;9.15;;;;;;;21.31;100.00;100531.56;5567474;32;33652;-58
2023/07/04 07:08:55;;;;;;;16.20;9.95;;;;;;;21.35;100.00;100535.22;5568210;32;33597;-58
2023/07/04 07:11:57;;;;;;;12.37;9.38;;;;;;;21.44;100.00;100540.50;5561656;32;33278;-58
2023/07/04 07:15:00;;;;;;;14.43;10.23;;;;;;;21.37;100.00;100538.37;5549006;32;33636;-57
2023/07/04 07:18:02;;;;;;;13.18;10.05;;;;;;;21.40;100.00;100539.63;5548822;32;33156;-58
2023/07/04 07:21:06;;;;;;;13.60;9.68;;;;;;;21.39;100.00;100541.56;5564212;32;33772;-58
2023/07/04 07:24:09;;;;;;;13.80;10.02;;;;;;;21.43;100.00;100537.00;5568474;32;33554;-58
2023/07/04 07:27:11;;;;;;;13.90;10.25;;;;;;;21.38;100.00;100534.50;5565098;32;34287;-57
2023/07/04 07:30:14;;;;;;;13.27;9.68;;;;;;;21.41;100.00;100541.22;5564851;32;33916;-58
2023/07/04 07:33:16;;;;;;;12.60;9.57;;;;;;;21.54;100.00;100529.88;5566281;32;33330;-58
2023/07/04 07:36:26;;;;;;;14.30;9.48;;;;;;;21.54;99.31;100537.25;5564800;32;33688;-58
2023/07/04 07:39:29;;;;;;;14.00;9.75;;;;;;;21.45;100.00;100544.81;5566494;32;33138;-58
2023/07/04 07:42:32;;;;;;;14.60;10.55;;;;;;;21.51;100.00;100537.97;5566195;32;34303;-58
2023/07/04 07:45:34;;;;;;;12.35;9.18;;;;;;;21.63;98.38;100542.56;5567491;32;34410;-58
2023/07/04 07:48:37;;;;;;;11.30;8.57;;;;;;;21.57;97.99;100537.34;5567237;32;33591;-58
2023/07/04 07:51:41;;;;;;;14.10;9.10;;;;;;;21.60;97.20;100537.81;5560180;32;33700;-58
2023/07/04 07:54:44;;;;;;;11.98;9.10;;;;;;;21.59;99.39;100545.22;5566926;32;33738;-58
2023/07/04 07:57:46;;;;;;;15.55;10.13;;;;;;;21.47;99.87;100543.34;5564841;32;33579;-58
2023/07/04 08:00:48;;;;;;;15.27;9.98;;;;;;;21.60;100.00;100554.19;5563794;32;33629;-58
2023/07/04 08:03:51;;;;;;;13.45;10.13;;;;;;;21.69;97.87;100543.88;5553132;32;33579;-58
2023/07/04 08:06:55;;;;;;;13.62;10.23;;;;;;;21.64;99.94;100542.19;5554715;32;33341;-59
2023/07/04 08:09:59;;;;;;;16.00;10.85;;;;;;;21.75;98.27;100547.91;5549800;32;33173;-59
2023/07/04 08:13:01;;;;;;;16.77;11.18;;;;;;;21.80;99.05;100551.19;5562335;32;34447;-58
2023/07/04 08:16:03;;;;;;;18.02;10.82;;;;;;;21.75;99.69;100558.84;5565539;32;33742;-59
2023/07/04 08:19:06;;;;;;;14.23;9.75;;;;;;;21.78;100.00;100563.59;5552024;32;34307;-59
2023/07/04 08:22:09;;;;;;;17.17;10.82;;;;;;;21.81;100.00;100560.94;5548569;32;33536;-59
2023/07/04 08:25:12;;;;;;;15.45;10.60;;;;;;;21.80;97.64;100561.31;5546665;32;33722;-58
2023/07/04 08:28:15;;;;;;;15.73;10.27;;;;;;;21.74;100.00;100574.41;5548015;32;34240;-59
2023/07/04 08:31:18;;;;;;;15.88;11.32;;;;;;;21.61;99.40;100574.84;5562486;32;33548;-59
2023/07/04 08:34:22;;;;;;;14.80;10.55;;;;;;;21.64;100.00;100568.69;5549934;32;33687;-59
2023/07/04 08:37:25;;;;;;;16.02;11.00;;;;;;;21.63;99.43;100567.13;5558627;32;33657;-59
2023/07/04 08:40:27;;;;;;;15.13;11.30;;;;;;;21.70;100.00;100570.03;5551429;32;33657;-58
2023/07/04 08:43:36;;;;;;;18.75;12.48;;;;;;;21.74;100.00;100565.44;5554578;32;34317;-59
2023/07/04 08:46:45;;;;;;;17.20;11.02;;;;;;;21.72;100.00;100565.81;5548888;32;33685;-58
2023/07/04 08:49:53;;;;;;;17.70;12.32;;;;;;;21.66;100.00;100561.75;5558038;32;33469;-59
2023/07/04 08:53:10;;;;;;;17.48;12.02;;;;;;;21.68;100.00;100556.72;5561262;32;33401;-59
2023/07/04 08:56:31;;;;;;;21.08;12.57;;;;;;;21.76;100.00;100558.50;5563747;32;33630;-59
2023/07/04 08:59:42;;;;;;;16.95;11.18;;;;;;;21.77;100.00;100562.81;5550086;32;33657;-58
2023/07/04 09:03:05;;;;;;;17.75;12.05;;;;;;;21.98;99.37;100564.47;5558799;32;33502;-58
2023/07/04 09:06:43;;;;;;;19.10;12.63;;;;;;;21.80;100.00;100561.31;5569600;32;33584;-58
2023/07/04 09:09:59;;;;;;;18.67;12.90;;;;;;;21.73;100.00;100559.19;5534843;31;34991;-58
2023/07/04 09:13:05;;;;;;;18.60;12.57;;;;;;;21.78;100.00;100563.59;5565960;32;34349;-58
2023/07/04 09:16:20;;;;;;;16.10;12.37;;;;;;;21.98;98.62;100565.25;5549712;32;33611;-59
2023/07/04 09:19:23;;;;;;;19.12;12.52;;;;;;;21.85;100.00;100563.78;5549496;32;34358;-58
2023/07/04 09:22:25;;;;;;;19.02;12.98;;;;;;;21.88;100.00;100567.75;5552434;32;33638;-59
2023/07/04 09:25:28;;;;;;;19.30;14.00;;;;;;;21.98;100.00;100562.53;5569012;32;34441;-59
2023/07/04 09:28:34;;;;;;;24.27;15.45;;;;;;;21.95;100.00;100563.28;5568381;32;33530;-58
2023/07/04 09:31:40;;;;;;;20.77;14.10;;;;;;;21.89;100.00;100572.06;5560935;32;33636;-59
2023/07/04 09:34:50;;;;;;;19.85;13.95;;;;;;;21.89;100.00;100561.94;5568679;32;34277;-59
2023/07/04 09:37:56;;;;;;;18.77;14.25;;;;;;;22.04;100.00;100571.25;5569303;32;33557;-59
2023/07/04 09:40:59;;;;;;;21.25;15.43;;;;;;;21.96;99.90;100569.50;5569122;32;34629;-60
2023/07/04 09:44:16;;;;;;;21.62;14.68;;;;;;;21.93;100.00;100579.19;5567109;32;33590;-60
2023/07/04 09:47:28;;;;;;;19.50;14.87;;;;;;;21.99;100.00;100579.72;5568796;32;33775;-59
2023/07/04 09:50:37;;;;;;;20.52;14.02;;;;;;;22.05;100.00;100581.84;5567502;32;34372;-60
2023/07/04 09:53:39;;;;;;;20.05;13.20;;;;;;;22.02;100.00;100576.31;5569636;32;34514;-60
2023/07/04 09:56:43;;;;;;;18.55;13.30;;;;;;;22.07;98.24;100575.22;5569222;32;33467;-59
2023/07/04 09:59:45;;;;;;;18.92;12.75;;;;;;;22.19;99.37;100566.97;5568990;32;33624;-60
2023/07/04 10:02:52;;;;;;;16.65;12.40;;;;;;;22.32;94.19;100570.38;5569104;32;33622;-60
2023/07/04 10:05:55;;;;;;;15.25;10.68;;;;;;;22.32;93.07;100560.25;5569090;32;33570;-59
2023/07/04 10:08:58;;;;;;;16.67;12.35;;;;;;;22.34;93.63;100560.69;5569251;32;33729;-59
2023/07/04 10:12:10;;;;;;;17.95;11.38;;;;;;;22.26;90.83;100557.00;5569362;32;33713;-59
2023/07/04 10:15:26;;;;;;;17.67;11.05;;;;;;;22.29;95.06;100558.25;5559155;32;34386;-60
2023/07/04 10:18:33;;;;;;;16.42;9.95;;;;;;;22.30;93.76;100557.09;5566258;32;33613;-60
2023/07/04 10:21:51;;;;;;;14.43;9.52;;;;;;;22.33;99.19;100555.59;5567986;32;33722;-60
2023/07/04 10:24:55;;;;;;;17.85;10.90;;;;;;;22.43;96.41;100553.09;5566857;32;34629;-60
2023/07/04 10:28:14;;;;;;;15.25;10.98;;;;;;;22.51;95.02;100548.56;5566400;32;33765;-60
2023/07/04 10:31:21;;;;;;;15.95;10.13;;;;;;;22.55;93.57;100551.38;5565788;32;33666;-59
2023/07/04 10:34:26;;;;;;;15.48;10.68;;;;;;;22.67;88.15;100554.00;5554514;32;34387;-60
2023/07/04 10:37:34;;;;;;;10.70;8.32;;;;;;;22.69;88.50;100552.50;5561442;32;33833;-60
2023/07/04 10:40:39;;;;;;;15.13;9.65;;;;;;;22.63;82.56;100550.41;5558805;32;33610;-60
2023/07/04 10:43:46;;;;;;;13.07;8.48;;;;;;;22.67;88.26;100549.31;5559876;32;34100;-60
2023/07/04 10:47:00;;;;;;;15.45;9.30;;;;;;;22.77;90.17;100547.97;5558969;32;33323;-60
2023/07/04 10:50:09;;;;;;;16.77;10.13;;;;;;;22.73;87.93;100547.91;5561592;32;35777;-60
2023/07/04 10:53:12;;;;;;;13.57;8.80;;;;;;;22.81;88.38;100554.28;5559889;32;33663;-60
2023/07/04 10:56:24;;;;;;;13.80;9.52;;;;;;;22.81;87.66;100545.31;5559988;32;33796;-61
2023/07/04 10:59:31;;;;;;;11.10;8.20;;;;;;;22.87;89.30;100544.66;5564622;32;34062;-60
2023/07/04 11:02:57;;;;;;;10.23;7.18;;;;;;;22.93;83.33;100532.31;5559536;32;33140;-60
2023/07/04 11:06:05;;;;;;;15.70;7.68;;;;;;;22.90;83.35;100535.75;5560066;32;33701;-59
2023/07/04 11:09:13;;;;;;;14.20;8.80;;;;;;;23.00;84.27;100539.09;5560919;32;33927;-58
2023/07/04 11:12:19;;;;;;;17.33;9.85;;;;;;;23.07;86.30;100540.00;5555795;32;33457;-58
2023/07/04 11:15:33;;;;;;;12.88;9.45;;;;;;;23.18;84.00;100540.25;5556508;32;33694;-58
2023/07/04 11:18:43;;;;;;;14.27;8.60;;;;;;;23.14;82.16;100536.63;5557154;32;34435;-58
2023/07/04 11:22:10;;;;;;;15.65;10.75;;;;;;;23.20;78.46;100533.22;5563678;32;34288;-58
2023/07/04 11:25:33;;;;;;;19.42;11.30;;;;;;;23.23;84.67;100530.94;5554688;32;34271;-58
2023/07/04 11:28:35;;;;;;;18.48;11.63;;;;;;;23.38;81.76;100533.59;5563135;32;33199;-58
2023/07/04 11:32:02;;;;;;;17.77;10.82;;;;;;;23.51;83.92;100522.44;5564332;32;33908;-58
2023/07/04 11:35:10;;;;;;;17.02;11.32;;;;;;;23.56;87.68;100525.69;5556765;32;33608;-58
2023/07/04 11:38:16;;;;;;;17.73;11.85;;;;;;;23.77;84.49;100522.53;5556491;32;34255;-58
2023/07/04 11:41:29;;;;;;;19.40;12.05;;;;;;;23.80;79.57;100527.28;5560208;32;34385;-58
2023/07/04 11:44:46;;;;;;;19.45;13.27;;;;;;;23.84;80.83;100524.59;5565253;32;33660;-58
2023/07/04 11:47:53;;;;;;;14.75;10.73;;;;;;;23.85;78.59;100524.25;5565968;32;34011;-58
2023/07/04 11:51:10;;;;;;;18.70;12.10;;;;;;;23.92;82.36;100518.09;5567291;32;34303;-58
2023/07/04 11:54:13;;;;;;;17.73;11.02;;;;;;;23.91;76.95;100516.53;5563187;32;33727;-57
2023/07/04 11:57:20;;;;;;;17.80;11.95;;;;;;;23.87;84.39;100511.00;5563556;32;33638;-58
2023/07/04 12:00:30;;;;;;;15.30;11.60;;;;;;;23.91;84.49;100527.47;5565717;32;34911;-58
2023/07/04 12:03:36;;;;;;;19.35;10.13;;;;;;;23.92;85.70;100520.84;5561904;32;33862;-58
2023/07/04 12:06:48;;;;;;;16.55;9.85;;;;;;;23.91;83.65;100525.53;5559426;32;33636;-58
2023/07/04 12:10:09;;;;;;;16.20;9.90;;;;;;;24.01;80.02;100515.09;5558017;32;34411;-58
2023/07/04 12:13:19;;;;;;;16.30;9.32;;;;;;;23.98;81.55;100521.31;5553993;32;33690;-58
2023/07/04 12:16:23;;;;;;;13.23;9.75;;;;;;;24.00;84.79;100525.25;5551663;32;33592;-58
2023/07/04 12:19:26;;;;;;;18.67;11.87;;;;;;;24.06;84.39;100517.50;5563060;32;33589;-58
2023/07/04 12:22:29;;;;;;;16.83;10.98;;;;;;;24.12;75.01;100516.06;5565546;32;33328;-58
2023/07/04 12:25:44;;;;;;;15.88;10.50;;;;;;;24.05;78.04;100516.72;5563752;32;34395;-58
2023/07/04 12:28:47;;;;;;;13.65;9.75;;;;;;;24.09;80.03;100511.31;5569889;32;33643;-59
2023/07/04 12:32:04;;;;;;;17.17;10.50;;;;;;;24.19;77.89;100507.94;5570308;32;34276;-60
2023/07/04 12:35:12;;;;;;;17.20;11.73;;;;;;;24.19;81.01;100501.66;5557879;32;33701;-60
2023/07/04 12:38:14;;;;;;;12.43;9.63;;;;;;;24.12;75.94;100505.88;5569821;31;34258;-60
2023/07/04 12:41:23;;;;;;;16.33;10.45;;;;;;;24.03;78.58;100501.81;5570329;32;33606;-60
2023/07/04 12:44:36;;;;;;;15.82;10.52;;;;;;;24.05;82.42;100497.56;5567911;32;33678;-60
2023/07/04 12:47:45;;;;;;;18.23;11.15;;;;;;;24.08;79.21;100498.78;5566035;32;33632;-61
2023/07/04 12:51:13;;;;;;;17.20;11.43;;;;;;;24.05;81.29;100500.31;5570335;32;33676;-62
2023/07/04 12:54:16;;;;;;;14.82;11.15;;;;;;;24.05;82.79;100500.31;5570566;32;33718;-61
2023/07/04 12:57:28;;;;;;;17.10;11.73;;;;;;;23.99;83.14;100499.03;5569252;32;33370;-60
2023/07/04 13:00:37;;;;;;;16.27;11.88;;;;;;;23.98;83.24;100500.19;5570381;32;33626;-59
2023/07/04 13:03:43;;;;;;;20.88;12.00;;;;;;;24.02;83.30;100503.00;5570233;32;34347;-60
2023/07/04 13:06:49;;;;;;;15.57;10.85;;;;;;;24.04;82.53;100503.38;5570333;32;33712;-60
2023/07/04 13:09:55;;;;;;;22.70;11.90;;;;;;;24.22;81.56;100498.97;5570222;32;33704;-60
2023/07/04 13:12:58;;;;;;;16.27;10.75;;;;;;;24.16;81.80;100503.19;5570261;32;34457;-60
2023/07/04 13:16:11;;;;;;;17.15;11.73;;;;;;;24.15;84.47;100504.34;5570089;32;33784;-60
2023/07/04 13:19:17;;;;;;;16.65;12.50;;;;;;;24.13;84.61;100501.19;5569188;32;33739;-60
2023/07/04 13:22:24;;;;;;;18.77;12.77;;;;;;;24.04;84.18;100500.66;5569092;32;33698;-60
2023/07/04 13:25:48;;;;;;;23.15;13.93;;;;;;;24.19;82.19;100507.94;5568993;32;33633;-60
2023/07/04 13:28:57;;;;;;;22.62;12.75;;;;;;;24.04;83.36;100496.00;5570196;32;34298;-60
2023/07/04 13:32:19;;;;;;;21.83;13.93;;;;;;;24.05;86.42;100494.81;5570005;32;34426;-60
2023/07/04 13:35:32;;;;;;;17.33;12.35;;;;;;;24.05;84.08;100502.25;5569378;32;34270;-60
2023/07/04 13:38:35;;;;;;;20.05;14.10;;;;;;;24.05;85.28;100494.81;5569422;31;33721;-59
2023/07/04 13:41:41;;;;;;;20.08;13.27;;;;;;;23.92;83.77;100496.97;5569620;32;33717;-59
2023/07/04 13:44:45;;;;;;;22.00;14.02;;;;;;;23.94;84.78;100498.53;5569928;32;33631;-60
2023/07/04 13:47:50;;;;;;;18.20;12.85;;;;;;;23.97;84.06;100495.84;5569484;32;33607;-60
2023/07/04 13:50:55;;;;;;;19.60;13.13;;;;;;;24.00;84.88;100491.59;5569323;32;34367;-60
2023/07/04 13:53:58;;;;;;;17.03;12.23;;;;;;;23.96;83.11;100483.34;5569563;32;34246;-60
2023/07/04 13:57:00;;;;;;;20.85;12.73;;;;;;;23.99;84.31;100487.28;5569445;32;34365;-60
2023/07/04 14:00:05;;;;;;;17.00;12.45;;;;;;;23.98;83.28;100482.97;5569543;32;34318;-60
2023/07/04 14:03:08;;;;;;;19.30;12.15;;;;;;;24.18;82.42;100486.41;5569467;32;34442;-60
2023/07/04 14:06:14;;;;;;;19.48;12.02;;;;;;;24.28;81.80;100483.03;5569713;32;33794;-60
2023/07/04 14:09:16;;;;;;;20.60;12.45;;;;;;;24.26;82.10;100482.59;5569477;32;34314;-60
2023/07/04 14:12:18;;;;;;;22.80;11.32;;;;;;;24.21;80.05;100483.72;5569563;32;34431;-60
2023/07/04 14:15:22;;;;;;;15.30;10.02;;;;;;;24.27;82.28;100482.25;5568972;32;34191;-60
2023/07/04 14:18:45;;;;;;;15.32;9.90;;;;;;;24.45;81.37;100471.53;5568909;32;33638;-60
2023/07/04 14:21:50;;;;;;;11.85;8.82;;;;;;;24.52;81.56;100470.84;5569286;32;33757;-60
2023/07/04 14:24:53;;;;;;;23.58;9.65;;;;;;;24.54;81.46;100452.84;5568744;32;33424;-60
2023/07/04 14:27:55;;;;;;;41.17;10.95;;;;;;;24.67;80.03;100447.94;5568973;32;33221;-60
2023/07/04 14:30:57;;;;;;;16.75;9.75;;;;;;;24.77;79.11;100441.78;5569058;32;34398;-60
2023/07/04 14:34:01;;;;;;;15.63;9.25;;;;;;;24.76;77.54;100436.66;5568953;32;33622;-60
2023/07/04 14:37:03;;;;;;;12.60;8.88;;;;;;;24.69;79.79;100437.34;5568786;32;34016;-60
2023/07/04 14:40:06;;;;;;;13.25;8.48;;;;;;;24.78;76.41;100435.12;5569013;32;34748;-60
2023/07/04 14:43:28;;;;;;;14.73;9.25;;;;;;;24.81;76.40;100425.34;5568860;32;33349;-60
2023/07/04 14:46:31;;;;;;;14.77;8.18;;;;;;;24.90;75.68;100428.59;5568644;32;33627;-60
2023/07/04 14:49:34;;;;;;;15.90;8.02;;;;;;;24.88;75.97;100432.88;5568209;32;33760;-60
